KFOT

Details ICAO KFOT
Name Rohnerville
Region United States
Timezone America/Los_Angeles (UTC-7.0)
Plans Departing 5
Arriving 4
Stats Elevation 392 ft / 119 m (AMSL)
Location 40.553935° -124.132660°
Runways 1
Magnetic Variation 14.318° E
Sunrise 2018-05-27 12:52:02 UTC / 2018-05-27 05:52:02 Local
Sunset 2018-05-28 03:38:18 UTC / 2018-05-27 20:38:18 Local
Advertisement - Login to hide

Runways

ID Width Length Bearing (true) Bearing (mag) Surface Threshold Offset Overrun Length
11 100 ft / 30 m 4,002 ft / 1,220 m 127.60° 113.28° Asphalt 0 ft / 0 m 0 ft / 0 m
29 100 ft / 30 m 4,002 ft / 1,220 m 307.61° 293.29° Asphalt 0 ft / 0 m 0 ft / 0 m

Map

Weather


0- 5 10 15 20 25 30 35+ Temperature / ° C

Clouds and Precipitation
Forecast for 2018-05-27 06:00 UTC. Updated 3 hours ago

Ground ~20,000 ft ~40,000 ft Winds

METAR

KFOT 270815Z AUTO 00000KT 10SM OVC009 11/10 A3013 RMK AO1

TAF

Not found

Frequencies

Unicom 122.90 MHz CTAF
Warning: Do not use this data for real-world aviation or navigation. No guarantee of current accuracy is given.